createdAt,value
2023-04-07T00:01:37.124Z,3.80
2023-04-07T00:06:43.487Z,3.70
2023-04-07T00:11:48.745Z,3.80
2023-04-07T00:16:52.055Z,3.80
2023-04-07T00:21:56.650Z,3.70
2023-04-07T00:27:01.046Z,3.70
2023-04-07T00:32:04.983Z,3.70
2023-04-07T00:37:10.088Z,3.70
2023-04-07T00:42:13.427Z,3.60
2023-04-07T00:47:17.186Z,3.50
2023-04-07T00:52:27.410Z,3.40
2023-04-07T00:57:30.740Z,3.40
2023-04-07T01:02:40.099Z,3.30
2023-04-07T01:07:54.053Z,3.30
2023-04-07T01:13:04.432Z,3.10
2023-04-07T01:18:14.160Z,3.10
2023-04-07T01:23:26.667Z,3.10
2023-04-07T01:28:51.531Z,3.20
2023-04-07T01:33:58.627Z,3.20
2023-04-07T01:39:02.358Z,3.10
2023-04-07T01:44:08.032Z,3.10
2023-04-07T01:49:13.066Z,3.00
2023-04-07T01:54:17.088Z,2.90
2023-04-07T01:59:20.951Z,2.90
2023-04-07T02:04:32.742Z,2.90
2023-04-07T02:09:41.612Z,2.90
2023-04-07T02:14:45.534Z,2.80
2023-04-07T02:19:54.996Z,2.70
2023-04-07T02:24:58.453Z,2.70
2023-04-07T02:30:03.680Z,2.80
2023-04-07T02:35:09.228Z,2.90
2023-04-07T02:40:13.163Z,2.80
2023-04-07T02:45:17.320Z,2.70
2023-04-07T02:50:22.482Z,2.70
2023-04-07T02:55:26.400Z,2.60
2023-04-07T03:00:30.222Z,2.80
2023-04-07T03:05:43.739Z,2.80
2023-04-07T03:10:48.991Z,2.90
2023-04-07T03:15:57.198Z,2.90
2023-04-07T03:21:03.922Z,2.90
2023-04-07T03:26:08.351Z,2.80
2023-04-07T03:31:14.570Z,2.80
2023-04-07T03:36:20.065Z,2.70
2023-04-07T03:41:24.571Z,2.70
2023-04-07T03:46:28.264Z,2.60
2023-04-07T03:51:33.316Z,2.50
2023-04-07T03:56:38.990Z,2.30
2023-04-07T04:01:42.994Z,2.20
2023-04-07T04:06:52.751Z,2.00
2023-04-07T04:12:26.103Z,1.90
2023-04-07T04:17:40.896Z,1.80
2023-04-07T04:22:46.916Z,1.70
2023-04-07T04:27:50.925Z,1.80
2023-04-07T04:32:58.432Z,1.70
2023-04-07T04:38:12.609Z,1.80
2023-04-07T04:43:22.897Z,1.80
2023-04-07T04:48:27.589Z,1.90
2023-04-07T04:53:32.951Z,2.00
2023-04-07T04:58:40.697Z,2.00
2023-04-07T05:03:46.304Z,1.90
2023-04-07T05:08:59.858Z,1.90
2023-04-07T05:14:09.329Z,2.00
2023-04-07T05:19:16.400Z,2.00
2023-04-07T05:24:22.025Z,2.00
2023-04-07T05:29:31.047Z,2.10
2023-04-07T05:34:34.866Z,2.10
2023-04-07T05:39:41.078Z,2.20
2023-04-07T05:44:47.986Z,2.30
2023-04-07T05:49:51.516Z,2.30
2023-04-07T05:54:57.608Z,2.30
2023-04-07T06:00:04.929Z,2.40
2023-04-07T06:05:17.502Z,2.40
2023-04-07T06:10:23.606Z,2.50
2023-04-07T06:15:27.375Z,2.50
2023-04-07T06:20:31.522Z,2.70
2023-04-07T06:25:36.867Z,3.10
2023-04-07T06:30:41.134Z,3.30
2023-04-07T06:35:47.718Z,3.40
2023-04-07T06:40:52.839Z,3.70
2023-04-07T06:45:56.565Z,3.90
2023-04-07T06:51:00.163Z,4.10
2023-04-07T06:56:10.025Z,4.40
2023-04-07T07:01:13.637Z,4.60
2023-04-07T07:06:16.988Z,4.70
2023-04-07T07:11:21.802Z,4.90
2023-04-07T07:16:25.145Z,5.20
2023-04-07T07:21:28.716Z,5.50
2023-04-07T07:26:33.700Z,5.80
2023-04-07T07:31:37.378Z,6.10
2023-04-07T07:36:41.016Z,6.50
2023-04-07T07:41:46.881Z,6.80
2023-04-07T07:46:50.139Z,7.00
2023-04-07T07:51:53.327Z,7.40
2023-04-07T07:56:57.871Z,7.50
2023-04-07T08:02:01.610Z,7.90
2023-04-07T08:07:05.486Z,8.10
2023-04-07T08:12:10.500Z,8.30
2023-04-07T08:17:14.225Z,8.70
2023-04-07T08:22:19.998Z,9.20
2023-04-07T08:27:25.075Z,9.80
2023-04-07T08:32:36.635Z,10.30
2023-04-07T08:37:41.507Z,10.50
2023-04-07T08:42:49.967Z,10.80
2023-04-07T08:47:58.095Z,11.30
2023-04-07T08:53:05.829Z,11.70
2023-04-07T08:58:13.681Z,11.70
2023-04-07T09:03:18.444Z,12.10
2023-04-07T09:08:22.038Z,12.30
2023-04-07T09:13:27.658Z,12.50
2023-04-07T09:18:31.029Z,12.90
2023-04-07T09:23:36.607Z,13.00
2023-04-07T09:28:43.722Z,13.00
2023-04-07T09:33:47.707Z,13.00
2023-04-07T09:38:51.748Z,13.40
2023-04-07T09:43:59.605Z,13.50
2023-04-07T09:49:06.220Z,13.50
2023-04-07T09:54:11.011Z,13.70
2023-04-07T09:59:17.812Z,14.10
2023-04-07T10:04:22.847Z,14.70
2023-04-07T10:09:29.241Z,14.60
2023-04-07T10:14:34.392Z,14.20
2023-04-07T10:19:38.657Z,14.30
2023-04-07T10:24:52.216Z,14.80
2023-04-07T10:29:58.952Z,15.10
2023-04-07T10:35:02.585Z,15.50
2023-04-07T10:40:31.728Z,15.30
2023-04-07T10:45:56.701Z,15.20
2023-04-07T10:51:19.041Z,14.90
2023-04-07T10:56:22.543Z,15.10
2023-04-07T11:01:28.822Z,15.00
2023-04-07T11:06:32.430Z,14.70
2023-04-07T11:11:42.089Z,14.60
2023-04-07T11:16:46.795Z,14.60
2023-04-07T11:21:50.335Z,14.70
2023-04-07T11:26:53.941Z,14.60
2023-04-07T11:32:00.381Z,14.60
2023-04-07T11:37:21.974Z,14.80
2023-04-07T11:42:35.272Z,14.60
2023-04-07T11:47:42.223Z,14.40
2023-04-07T11:52:46.503Z,14.50
2023-04-07T11:57:51.991Z,14.70
2023-04-07T12:02:57.188Z,15.00
2023-04-07T12:08:01.200Z,15.10
2023-04-07T12:13:04.861Z,15.20
2023-04-07T12:18:09.986Z,15.40
2023-04-07T12:23:13.666Z,15.40
2023-04-07T12:28:17.208Z,15.30
2023-04-07T12:33:22.301Z,15.30
2023-04-07T12:38:26.061Z,15.10
2023-04-07T12:43:29.721Z,15.00
2023-04-07T12:48:34.807Z,14.90
2023-04-07T12:53:38.410Z,14.90
2023-04-07T12:58:41.650Z,14.80
2023-04-07T13:03:46.505Z,14.60
2023-04-07T13:08:49.833Z,14.40
2023-04-07T13:13:54.922Z,14.50
2023-04-07T13:19:02.384Z,14.70
2023-04-07T13:24:05.860Z,15.30
2023-04-07T13:29:09.129Z,15.00
2023-04-07T13:34:14.338Z,14.70
2023-04-07T13:39:17.656Z,14.40
2023-04-07T13:44:21.621Z,14.10
2023-04-07T13:49:26.616Z,14.20
2023-04-07T13:54:30.357Z,14.70
2023-04-07T13:59:33.957Z,15.30
2023-04-07T14:04:39.089Z,15.80
2023-04-07T14:09:43.093Z,16.20
2023-04-07T14:14:46.644Z,16.10
2023-04-07T14:19:51.804Z,15.80
2023-04-07T14:24:55.596Z,15.80
2023-04-07T14:29:59.692Z,15.30
2023-04-07T14:35:04.782Z,14.90
2023-04-07T14:40:09.954Z,14.30
2023-04-07T14:45:14.305Z,13.90
2023-04-07T14:50:19.645Z,13.70
2023-04-07T14:55:23.753Z,13.50
2023-04-07T15:00:29.110Z,13.20
2023-04-07T15:05:34.240Z,12.90
2023-04-07T15:10:39.782Z,12.60
2023-04-07T15:15:43.303Z,12.50
2023-04-07T15:20:48.294Z,12.30
2023-04-07T15:25:56.328Z,12.20
2023-04-07T15:31:00.787Z,12.10
2023-04-07T15:36:06.003Z,12.10
2023-04-07T15:41:09.627Z,12.20
2023-04-07T15:46:13.257Z,12.60
2023-04-07T15:51:17.882Z,12.70
2023-04-07T15:56:23.435Z,12.90
2023-04-07T16:01:27.052Z,13.10
2023-04-07T16:06:32.119Z,13.30
2023-04-07T16:11:35.960Z,13.30
2023-04-07T16:16:41.692Z,13.60
2023-04-07T16:21:46.789Z,13.90
2023-04-07T16:26:51.705Z,13.60
2023-04-07T16:31:55.475Z,13.20
2023-04-07T16:37:00.196Z,12.90
2023-04-07T16:42:04.391Z,12.60
2023-04-07T16:47:08.002Z,12.40
2023-04-07T16:52:13.122Z,12.20
2023-04-07T16:57:17.055Z,11.70
2023-04-07T17:02:20.538Z,11.30
2023-04-07T17:07:25.315Z,11.00
2023-04-07T17:12:28.977Z,10.80
2023-04-07T17:17:32.525Z,10.60
2023-04-07T17:22:37.537Z,10.40
2023-04-07T17:27:41.116Z,10.20
2023-04-07T17:32:44.324Z,10.00
2023-04-07T17:37:49.313Z,9.80
2023-04-07T17:42:53.807Z,9.70
2023-04-07T17:47:57.088Z,9.60
2023-04-07T17:53:02.006Z,9.50
2023-04-07T17:58:06.583Z,9.40
2023-04-07T18:03:11.159Z,9.30
2023-04-07T18:08:15.862Z,9.10
2023-04-07T18:13:19.188Z,8.90
2023-04-07T18:18:22.410Z,8.70
2023-04-07T18:23:27.098Z,8.60
2023-04-07T18:28:31.071Z,8.50
2023-04-07T18:33:35.052Z,8.30
2023-04-07T18:38:39.674Z,8.20
2023-04-07T18:43:42.984Z,8.10
2023-04-07T18:48:46.631Z,8.00
2023-04-07T18:53:51.417Z,7.90
2023-04-07T18:58:54.998Z,7.80
2023-04-07T19:03:59.200Z,7.70
2023-04-07T19:09:04.964Z,7.60
2023-04-07T19:14:08.024Z,7.60
2023-04-07T19:19:12.053Z,7.50
2023-04-07T19:24:16.789Z,7.50
2023-04-07T19:29:20.393Z,7.50
2023-04-07T19:34:23.973Z,7.40
2023-04-07T19:39:29.236Z,7.30
2023-04-07T19:44:32.718Z,7.20
2023-04-07T19:49:36.369Z,7.10
2023-04-07T19:54:40.893Z,7.00
2023-04-07T19:59:44.186Z,7.00
2023-04-07T20:04:47.726Z,7.00
2023-04-07T20:09:54.034Z,7.00
2023-04-07T20:14:57.420Z,7.00
2023-04-07T20:20:01.444Z,7.00
2023-04-07T20:25:07.364Z,6.80
2023-04-07T20:30:11.133Z,6.70
2023-04-07T20:35:14.952Z,6.60
2023-04-07T20:40:19.983Z,6.60
2023-04-07T20:45:23.422Z,6.50
2023-04-07T20:50:27.045Z,6.40
2023-04-07T20:55:31.989Z,6.30
2023-04-07T21:00:35.303Z,6.30
2023-04-07T21:05:39.826Z,6.30
2023-04-07T21:10:44.446Z,6.30
2023-04-07T21:15:48.142Z,6.40
2023-04-07T21:20:51.456Z,6.50
2023-04-07T21:26:00.416Z,6.40
2023-04-07T21:31:04.461Z,6.40
2023-04-07T21:36:08.655Z,6.40
2023-04-07T21:41:13.730Z,6.40
2023-04-07T21:46:18.052Z,6.40
2023-04-07T21:51:21.579Z,6.30
2023-04-07T21:56:28.724Z,6.20
2023-04-07T22:01:32.497Z,6.20
2023-04-07T22:06:35.839Z,6.20
2023-04-07T22:11:40.896Z,6.20
2023-04-07T22:16:44.433Z,6.20
2023-04-07T22:21:47.649Z,6.10
2023-04-07T22:26:53.945Z,6.10
2023-04-07T22:31:57.634Z,6.10
2023-04-07T22:37:01.228Z,6.00
2023-04-07T22:42:06.403Z,6.00
2023-04-07T22:47:10.608Z,6.00
2023-04-07T22:52:14.279Z,5.80
2023-04-07T22:57:19.246Z,5.80
2023-04-07T23:02:22.959Z,5.80
2023-04-07T23:07:26.785Z,5.70
2023-04-07T23:12:32.006Z,5.70
2023-04-07T23:17:35.897Z,5.70
2023-04-07T23:22:39.456Z,5.70
2023-04-07T23:27:44.474Z,5.80
2023-04-07T23:32:48.239Z,5.70
2023-04-07T23:37:51.533Z,5.70
2023-04-07T23:42:56.427Z,5.80
2023-04-07T23:48:00.173Z,5.80
2023-04-07T23:53:04.450Z,5.80
2023-04-07T23:58:09.061Z,5.80
